Rome Ciampino, Italy

11:56 PM CEST on October 20, 2014 (GMT +0200)
Ciampino | Change Station
CLOSE
Current Station
Personal Weather Station
Location: Ciampino, LAZIO
Elevation: 348 ft
Nearby Weather Stations

Elev 348 ft 41.81 °N, 12.60 °E | Updated 11 minutes ago

Partly Cloudy
Partly Cloudy
64.4 °F
Feels Like 64.4 °F
N
1.6
Wind Variable Wind from East
Gusts 3.8 mph

Today
High -- | Low -- °F
--% Chance of Precip.
Yesterday
High -- | Low -- °F
Precip. -- in
7:27 AM 6:21 PM
Waning Crescent, 9% visible
Pressure 30.06 in
Visibility 6.2 miles
Clouds Few 800 ft
Dew Point 63 °F
Humidity 95%
Rainfall 0.00 in
Snow Depth Not available.
UV 0 out of 12
Pollen Not available.
Air Quality Not available.
Flu Activity Not available.
METAR LIRA 202155Z 12001KT 9999 FEW008 18/16 Q1018

More Conditions Fewer Conditions

Pressure 30.06 in
Visibility 6.2 miles
Clouds Few 800 ft
Dew Point 63 °F
Humidity 95%
Rainfall 0.00 in
Snow Depth Not available.
UV 0 out of 12
Pollen Not available.
Air Quality Not available.
Flu Activity Not available.
METAR LIRA 202155Z 12001KT 9999 FEW008 18/16 Q1018

More Conditions Fewer Conditions

10-Day Weather Forecast

Almanac

Astronomy

Oct. 20, 2014 Rise Set
Actual Time 7:27 AM CEST 6:21 PM CEST
Civil Twilight 6:59 AM CEST 6:49 PM CEST
Nautical Twilight 6:26 AM CEST 7:21 PM CEST
Astronomical Twilight 5:54 AM CEST 7:53 PM CEST
Moon 3:57 AM CEST 4:37 PM CEST
Length of Visible Light 11h 50m
Length of Day
10h 53m
Tomorrow will be 2m 39s shorter.
Waning Crescent, 9% of the Moon is Illuminated
Today
Waning Crescent
Oct 23
New
Oct 30
First Quarter
Nov 6
Full
Nov 14
Last Quarter

Today's Extremes

Country Highs Country Lows

Community

WunderPhotos

Upload Photos

1,763,527 photos uploaded!

WunderBlogs® & News

Nearby

Snow Depth

Not available.

Earthquake Activity

City Distance Mag. Time & Date
No recent earthquake activity has been reported nearby.
Minimum magnitude displayed is 2.5.

Coastal Water Temperatures

Place Temperature
No Stations Reporting

Nearby Weather Stations